createdAt,value
2023-04-01T00:01:34.548Z,7.37
2023-04-01T00:04:03.521Z,7.39
2023-04-01T00:06:33.067Z,7.36
2023-04-01T00:09:01.863Z,7.38
2023-04-01T00:11:31.270Z,7.37
2023-04-01T00:14:00.303Z,7.34
2023-04-01T00:16:28.981Z,7.49
2023-04-01T00:18:59.300Z,7.51
2023-04-01T00:21:27.746Z,7.76
2023-04-01T00:23:57.145Z,7.61
2023-04-01T00:26:26.370Z,7.68
2023-04-01T00:28:55.336Z,7.69
2023-04-01T00:31:24.012Z,7.75
2023-04-01T00:33:54.400Z,7.67
2023-04-01T00:36:24.881Z,7.65
2023-04-01T00:38:54.386Z,7.70
2023-04-01T00:41:23.689Z,7.66
2023-04-01T00:43:54.199Z,7.65
2023-04-01T00:46:22.926Z,7.78
2023-04-01T00:48:55.679Z,7.87
2023-04-01T00:51:30.388Z,7.79
2023-04-01T00:54:03.451Z,7.73
2023-04-01T00:56:35.054Z,7.74
2023-04-01T00:59:09.583Z,7.71
2023-04-01T01:01:39.268Z,7.76
2023-04-01T01:04:08.620Z,7.73
2023-04-01T01:06:49.337Z,7.72
2023-04-01T01:09:30.819Z,7.76
2023-04-01T01:12:07.325Z,7.78
2023-04-01T01:14:50.202Z,7.71
2023-04-01T01:17:28.293Z,7.68
2023-04-01T01:20:26.980Z,7.69
2023-04-01T01:23:27.438Z,7.63
2023-04-01T01:26:12.031Z,7.72
2023-04-01T01:28:53.024Z,7.71
2023-04-01T01:31:28.021Z,7.68
2023-04-01T01:34:13.074Z,7.79
2023-04-01T01:36:47.768Z,7.81
2023-04-01T01:39:17.299Z,7.78
2023-04-01T01:41:48.355Z,7.75
2023-04-01T01:44:19.255Z,7.70
2023-04-01T01:46:49.098Z,7.74
2023-04-01T01:49:20.942Z,7.88
2023-04-01T01:51:51.455Z,7.78
2023-04-01T01:54:21.997Z,7.76
2023-04-01T01:56:56.016Z,7.75
2023-04-01T01:59:25.768Z,7.85
2023-04-01T02:01:57.748Z,7.76
2023-04-01T02:04:26.746Z,7.79
2023-04-01T02:07:01.424Z,7.79
2023-04-01T02:09:31.665Z,7.69
2023-04-01T02:12:04.163Z,7.73
2023-04-01T02:14:42.484Z,7.65
2023-04-01T02:17:14.069Z,7.74
2023-04-01T02:19:48.773Z,7.81
2023-04-01T02:22:22.656Z,7.77
2023-04-01T02:24:53.130Z,7.73
2023-04-01T02:27:23.892Z,7.70
2023-04-01T02:29:53.398Z,7.72
2023-04-01T02:32:23.467Z,7.76
2023-04-01T02:34:53.253Z,7.72
2023-04-01T02:37:23.880Z,7.77
2023-04-01T02:39:52.641Z,7.74
2023-04-01T02:42:22.761Z,7.77
2023-04-01T02:44:51.369Z,7.79
2023-04-01T02:47:19.726Z,7.72
2023-04-01T02:49:48.771Z,7.69
2023-04-01T02:52:19.015Z,7.62
2023-04-01T02:54:49.137Z,7.71
2023-04-01T02:57:17.809Z,7.66
2023-04-01T02:59:46.418Z,7.78
2023-04-01T03:02:15.535Z,7.68
2023-04-01T03:04:44.610Z,7.69
2023-04-01T03:07:14.108Z,7.77
2023-04-01T03:09:42.460Z,7.83
2023-04-01T03:12:13.361Z,7.84
2023-04-01T03:14:42.818Z,7.78
2023-04-01T03:17:11.640Z,7.67
2023-04-01T03:19:40.535Z,7.54
2023-04-01T03:22:09.386Z,7.61
2023-04-01T03:24:38.016Z,7.67
2023-04-01T03:27:06.347Z,7.62
2023-04-01T03:29:36.865Z,7.57
2023-04-01T03:32:05.188Z,7.56
2023-04-01T03:34:34.477Z,7.56
2023-04-01T03:37:03.109Z,7.57
2023-04-01T03:39:31.564Z,7.65
2023-04-01T03:42:00.139Z,7.63
2023-04-01T03:44:28.974Z,7.58
2023-04-01T03:46:58.746Z,7.49
2023-04-01T03:49:27.511Z,7.57
2023-04-01T03:51:56.531Z,7.70
2023-04-01T03:54:25.005Z,7.65
2023-04-01T03:56:54.946Z,7.59
2023-04-01T03:59:23.830Z,7.65
2023-04-01T04:01:52.219Z,7.52
2023-04-01T04:04:23.076Z,7.63
2023-04-01T04:06:52.127Z,7.70
2023-04-01T04:09:20.487Z,7.74
2023-04-01T04:11:48.942Z,7.72
2023-04-01T04:14:17.359Z,7.77
2023-04-01T04:16:45.641Z,7.67
2023-04-01T04:19:14.029Z,7.72
2023-04-01T04:21:44.523Z,7.72
2023-04-01T04:24:13.005Z,7.73
2023-04-01T04:26:41.497Z,7.59
2023-04-01T04:29:10.024Z,7.67
2023-04-01T04:31:38.607Z,7.63
2023-04-01T04:34:07.682Z,7.65
2023-04-01T04:36:36.493Z,7.67
2023-04-01T04:39:07.821Z,7.63
2023-04-01T04:41:37.578Z,7.63
2023-04-01T04:44:06.538Z,7.62
2023-04-01T04:46:35.299Z,7.60
2023-04-01T04:49:03.886Z,7.53
2023-04-01T04:51:35.449Z,7.50
2023-04-01T04:54:04.345Z,7.44
2023-04-01T04:56:35.361Z,7.49
2023-04-01T04:59:03.998Z,7.41
2023-04-01T05:01:32.331Z,7.35
2023-04-01T05:04:01.844Z,7.27
2023-04-01T05:06:35.766Z,7.34
2023-04-01T05:09:08.725Z,7.30
2023-04-01T05:11:43.347Z,7.30
2023-04-01T05:14:15.552Z,7.40
2023-04-01T05:16:43.946Z,7.35
2023-04-01T05:19:12.591Z,7.41
2023-04-01T05:21:41.040Z,7.48
2023-04-01T05:24:11.426Z,7.46
2023-04-01T05:26:41.869Z,7.44
2023-04-01T05:29:10.142Z,7.45
2023-04-01T05:31:42.291Z,7.47
2023-04-01T05:34:10.538Z,7.48
2023-04-01T05:36:39.343Z,7.52
2023-04-01T05:39:08.020Z,7.60
2023-04-01T05:41:38.656Z,7.63
2023-04-01T05:44:08.557Z,7.64
2023-04-01T05:46:37.066Z,7.59
2023-04-01T05:49:05.744Z,7.63
2023-04-01T05:51:34.609Z,7.64
2023-04-01T05:54:03.206Z,7.70
2023-04-01T05:56:32.020Z,7.76
2023-04-01T05:59:00.125Z,7.86
2023-04-01T06:01:30.191Z,7.82
2023-04-01T06:03:58.495Z,7.83
2023-04-01T06:06:29.002Z,7.93
2023-04-01T06:09:02.148Z,7.96
2023-04-01T06:11:39.473Z,8.00
2023-04-01T06:14:20.112Z,7.96
2023-04-01T06:17:05.634Z,7.84
2023-04-01T06:19:42.503Z,8.00
2023-04-01T06:22:28.183Z,7.99
2023-04-01T06:25:13.654Z,7.95
2023-04-01T06:28:09.327Z,8.10
2023-04-01T06:30:46.322Z,8.12
2023-04-01T06:33:39.033Z,8.13
2023-04-01T06:36:40.181Z,8.25
2023-04-01T06:39:34.476Z,8.40
2023-04-01T06:42:31.892Z,8.33
2023-04-01T06:45:11.373Z,8.39
2023-04-01T06:47:55.194Z,8.48
2023-04-01T06:50:31.186Z,8.49
2023-04-01T06:53:09.176Z,8.48
2023-04-01T06:55:43.672Z,8.59
2023-04-01T06:58:22.055Z,8.77
2023-04-01T07:00:53.466Z,8.75
2023-04-01T07:03:25.935Z,8.93
2023-04-01T07:05:56.287Z,8.94
2023-04-01T07:08:30.183Z,8.90
2023-04-01T07:11:04.050Z,9.00
2023-04-01T07:13:38.363Z,8.86
2023-04-01T07:16:15.093Z,8.89
2023-04-01T07:18:49.897Z,9.15
2023-04-01T07:21:26.704Z,9.28
2023-04-01T07:23:59.188Z,9.34
2023-04-01T07:26:27.971Z,9.45
2023-04-01T07:28:56.850Z,9.47
2023-04-01T07:31:39.951Z,9.37
2023-04-01T07:34:14.897Z,9.34
2023-04-01T07:36:51.164Z,9.52
2023-04-01T07:39:31.570Z,9.53
2023-04-01T07:42:08.815Z,9.58
2023-04-01T07:44:48.835Z,9.42
2023-04-01T07:47:26.445Z,9.34
2023-04-01T07:50:04.151Z,9.19
2023-04-01T07:52:43.515Z,9.26
2023-04-01T07:55:18.920Z,9.22
2023-04-01T07:57:54.838Z,9.38
2023-04-01T08:00:29.320Z,9.50
2023-04-01T08:03:32.808Z,9.47
2023-04-01T08:06:05.124Z,9.56
2023-04-01T08:08:47.728Z,9.61
2023-04-01T08:11:27.815Z,9.48
2023-04-01T08:14:05.281Z,9.60
2023-04-01T08:16:41.068Z,9.66
2023-04-01T08:19:22.924Z,9.57
2023-04-01T08:21:54.952Z,9.65
2023-04-01T08:24:44.362Z,9.51
2023-04-01T08:27:23.709Z,9.70
2023-04-01T08:29:59.498Z,9.88
2023-04-01T08:32:33.412Z,9.87
2023-04-01T08:35:09.404Z,10.06
2023-04-01T08:37:42.663Z,9.78
2023-04-01T08:40:37.892Z,9.97
2023-04-01T08:43:15.169Z,9.84
2023-04-01T08:46:08.791Z,10.04
2023-04-01T08:48:51.474Z,10.00
2023-04-01T08:51:46.031Z,9.86
2023-04-01T08:54:39.285Z,10.02
2023-04-01T08:57:20.777Z,10.04
2023-04-01T08:59:59.930Z,9.93
2023-04-01T09:03:05.660Z,9.98
2023-04-01T09:05:43.029Z,9.90
2023-04-01T09:08:27.687Z,9.97
2023-04-01T09:11:20.748Z,10.18
2023-04-01T09:14:25.838Z,10.17
2023-04-01T09:17:44.007Z,10.06
2023-04-01T09:20:41.607Z,9.91
2023-04-01T09:23:29.314Z,9.94
2023-04-01T09:26:11.218Z,10.18
2023-04-01T09:28:47.591Z,10.23
2023-04-01T09:31:35.596Z,10.20
2023-04-01T09:34:30.517Z,10.26
2023-04-01T09:37:18.775Z,10.22
2023-04-01T09:39:58.994Z,10.39
2023-04-01T09:42:45.626Z,10.17
2023-04-01T09:45:26.388Z,9.81
2023-04-01T09:48:12.340Z,9.82
2023-04-01T09:50:51.283Z,9.90
2023-04-01T09:53:45.441Z,9.93
2023-04-01T09:57:04.728Z,9.87
2023-04-01T10:00:08.276Z,9.83
2023-04-01T10:03:35.513Z,9.63
2023-04-01T10:06:44.150Z,9.54
2023-04-01T10:09:54.850Z,9.41
2023-04-01T10:13:00.678Z,9.46
2023-04-01T10:15:55.715Z,9.21
2023-04-01T10:19:03.796Z,9.16
2023-04-01T10:22:11.277Z,9.03
2023-04-01T10:25:19.043Z,8.87
2023-04-01T10:28:31.804Z,8.87
2023-04-01T10:31:34.158Z,8.97
2023-04-01T10:34:34.825Z,9.00
2023-04-01T10:37:18.470Z,9.06
2023-04-01T10:40:24.026Z,9.17
2023-04-01T10:43:33.609Z,9.10
2023-04-01T10:46:42.909Z,9.07
2023-04-01T10:49:51.530Z,9.10
2023-04-01T10:53:07.166Z,8.90
2023-04-01T10:56:05.368Z,8.58
2023-04-01T10:59:22.105Z,8.43
2023-04-01T11:02:26.291Z,8.53
2023-04-01T11:05:29.220Z,8.46
2023-04-01T11:08:42.018Z,8.41
2023-04-01T11:11:42.736Z,8.45
2023-04-01T11:14:58.137Z,8.47
2023-04-01T11:17:34.021Z,8.58
2023-04-01T11:20:44.559Z,8.54
2023-04-01T11:23:51.997Z,8.44
2023-04-01T11:26:47.058Z,8.43
2023-04-01T11:29:59.191Z,8.40
2023-04-01T11:32:46.981Z,8.30
2023-04-01T11:35:55.087Z,8.24
2023-04-01T11:39:01.834Z,8.29
2023-04-01T11:41:37.194Z,8.42
2023-04-01T11:44:19.974Z,8.40
2023-04-01T11:47:17.151Z,8.45
2023-04-01T11:49:56.132Z,8.28
2023-04-01T11:52:36.232Z,8.34
2023-04-01T11:55:26.223Z,8.23
2023-04-01T11:58:09.762Z,8.24
2023-04-01T12:00:59.308Z,8.37
2023-04-01T12:03:47.743Z,8.39
2023-04-01T12:06:23.489Z,8.27
2023-04-01T12:09:04.099Z,8.13
2023-04-01T12:11:42.264Z,8.22
2023-04-01T12:14:19.650Z,8.29
2023-04-01T12:16:58.216Z,8.38
2023-04-01T12:19:46.462Z,8.42
2023-04-01T12:22:33.634Z,8.58
2023-04-01T12:25:17.264Z,8.84
2023-04-01T12:27:54.986Z,8.81
2023-04-01T12:30:56.115Z,8.79
2023-04-01T12:33:50.972Z,8.58
2023-04-01T12:36:37.749Z,8.39
2023-04-01T12:39:25.595Z,8.44
2023-04-01T12:42:02.818Z,8.37
2023-04-01T12:44:52.070Z,8.29
2023-04-01T12:47:44.810Z,8.32
2023-04-01T12:50:27.413Z,8.40
2023-04-01T12:53:08.978Z,8.38
2023-04-01T12:55:41.400Z,8.42
2023-04-01T12:58:46.607Z,8.46
2023-04-01T13:01:33.136Z,8.59
2023-04-01T13:04:25.753Z,8.68
2023-04-01T13:07:16.369Z,8.69
2023-04-01T13:09:55.325Z,8.66
2023-04-01T13:12:39.181Z,8.57
2023-04-01T13:15:25.854Z,8.59
2023-04-01T13:17:59.996Z,8.55
2023-04-01T13:20:37.196Z,8.57
2023-04-01T13:23:13.768Z,8.61
2023-04-01T13:25:47.324Z,8.66
2023-04-01T13:28:19.073Z,8.64
2023-04-01T13:30:52.215Z,8.64
2023-04-01T13:33:29.469Z,8.75
2023-04-01T13:36:07.166Z,8.80
2023-04-01T13:38:50.104Z,8.89
2023-04-01T13:41:25.565Z,8.98
2023-04-01T13:43:57.322Z,8.97
2023-04-01T13:46:34.689Z,9.07
2023-04-01T13:49:21.076Z,9.27
2023-04-01T13:51:55.703Z,9.30
2023-04-01T13:54:40.120Z,9.18
2023-04-01T13:57:19.363Z,9.11
2023-04-01T14:00:11.701Z,9.13
2023-04-01T14:03:12.716Z,9.08
2023-04-01T14:05:55.020Z,9.16
2023-04-01T14:08:31.591Z,9.14
2023-04-01T14:11:08.610Z,9.08
2023-04-01T14:13:44.572Z,9.14
2023-04-01T14:16:36.422Z,9.12
2023-04-01T14:19:13.879Z,8.99
2023-04-01T14:21:44.865Z,8.91
2023-04-01T14:24:30.767Z,8.85
2023-04-01T14:27:20.644Z,8.88
2023-04-01T14:29:58.510Z,8.82
2023-04-01T14:32:36.782Z,8.82
2023-04-01T14:35:25.046Z,8.75
2023-04-01T14:38:14.631Z,8.72
2023-04-01T14:40:52.906Z,8.67
2023-04-01T14:43:31.506Z,8.63
2023-04-01T14:46:11.532Z,8.64
2023-04-01T14:48:40.499Z,8.63
2023-04-01T14:51:12.878Z,8.59
2023-04-01T14:53:46.623Z,8.59
2023-04-01T14:56:15.479Z,8.49
2023-04-01T14:58:48.072Z,8.55
2023-04-01T15:01:34.269Z,8.47
2023-04-01T15:04:08.639Z,8.42
2023-04-01T15:06:44.224Z,8.43
2023-04-01T15:09:18.059Z,8.42
2023-04-01T15:11:54.377Z,8.44
2023-04-01T15:14:42.934Z,8.46
2023-04-01T15:17:44.840Z,8.56
2023-04-01T15:20:27.126Z,8.62
2023-04-01T15:23:05.275Z,8.67
2023-04-01T15:25:39.211Z,8.68
2023-04-01T15:28:13.398Z,8.80
2023-04-01T15:30:48.742Z,8.77
2023-04-01T15:33:33.403Z,8.79
2023-04-01T15:36:05.615Z,8.75
2023-04-01T15:38:38.665Z,8.73
2023-04-01T15:41:13.410Z,8.71
2023-04-01T15:43:46.708Z,8.70
2023-04-01T15:46:22.224Z,8.72
2023-04-01T15:49:01.465Z,8.72
2023-04-01T15:51:35.513Z,8.75
2023-04-01T15:54:21.942Z,8.68
2023-04-01T15:56:58.845Z,8.80
2023-04-01T15:59:37.609Z,8.81
2023-04-01T16:02:15.196Z,8.81
2023-04-01T16:04:50.009Z,8.83
2023-04-01T16:07:26.678Z,8.76
2023-04-01T16:10:01.752Z,8.68
2023-04-01T16:12:40.666Z,8.71
2023-04-01T16:15:15.558Z,8.76
2023-04-01T16:17:57.529Z,8.75
2023-04-01T16:20:37.838Z,8.74
2023-04-01T16:23:13.388Z,8.75
2023-04-01T16:25:43.049Z,8.73
2023-04-01T16:28:20.907Z,8.67
2023-04-01T16:30:53.161Z,8.67
2023-04-01T16:33:25.111Z,8.70
2023-04-01T16:35:58.425Z,8.66
2023-04-01T16:38:28.936Z,8.64
2023-04-01T16:41:13.057Z,8.60
2023-04-01T16:43:51.568Z,8.59
2023-04-01T16:46:31.754Z,8.56
2023-04-01T16:49:06.783Z,8.53
2023-04-01T16:51:46.681Z,8.48
2023-04-01T16:54:19.347Z,8.47
2023-04-01T16:56:49.908Z,8.47
2023-04-01T16:59:21.447Z,8.51
2023-04-01T17:01:51.956Z,8.46
2023-04-01T17:04:24.384Z,8.43
2023-04-01T17:06:59.918Z,8.37
2023-04-01T17:09:36.127Z,8.23
2023-04-01T17:12:10.876Z,8.20
2023-04-01T17:14:46.485Z,8.15
2023-04-01T17:17:22.982Z,8.18
2023-04-01T17:20:05.621Z,8.15
2023-04-01T17:22:40.734Z,8.13
2023-04-01T17:25:20.134Z,8.17
2023-04-01T17:27:54.211Z,8.21
2023-04-01T17:30:30.470Z,8.26
2023-04-01T17:33:09.021Z,8.34
2023-04-01T17:35:38.756Z,8.30
2023-04-01T17:38:16.135Z,8.35
2023-04-01T17:40:53.670Z,8.33
2023-04-01T17:43:26.757Z,8.32
2023-04-01T17:45:57.153Z,8.35
2023-04-01T17:48:34.621Z,8.37
2023-04-01T17:51:13.635Z,8.39
2023-04-01T17:53:48.097Z,8.36
2023-04-01T17:56:28.425Z,8.39
2023-04-01T17:59:01.671Z,8.41
2023-04-01T18:01:38.272Z,8.47
2023-04-01T18:04:10.776Z,8.40
2023-04-01T18:06:44.774Z,8.49
2023-04-01T18:09:21.400Z,8.47
2023-04-01T18:11:56.812Z,8.48
2023-04-01T18:14:28.113Z,8.40
2023-04-01T18:17:03.424Z,8.36
2023-04-01T18:19:38.595Z,8.37
2023-04-01T18:22:13.260Z,8.36
2023-04-01T18:24:47.436Z,8.34
2023-04-01T18:27:18.910Z,8.32
2023-04-01T18:29:51.983Z,8.32
2023-04-01T18:32:30.665Z,8.35
2023-04-01T18:35:02.795Z,8.33
2023-04-01T18:37:34.307Z,8.30
2023-04-01T18:40:12.728Z,8.29
2023-04-01T18:42:46.327Z,8.34
2023-04-01T18:45:21.467Z,8.29
2023-04-01T18:47:55.303Z,8.28
2023-04-01T18:50:25.733Z,8.30
2023-04-01T18:52:56.410Z,8.37
2023-04-01T18:55:33.074Z,8.32
2023-04-01T18:58:10.012Z,8.27
2023-04-01T19:00:41.875Z,8.38
2023-04-01T19:03:14.619Z,8.32
2023-04-01T19:05:44.238Z,8.39
2023-04-01T19:08:20.673Z,8.35
2023-04-01T19:10:56.590Z,8.30
2023-04-01T19:13:29.563Z,8.35
2023-04-01T19:16:05.333Z,8.33
2023-04-01T19:18:57.658Z,8.28
2023-04-01T19:21:30.961Z,8.26
2023-04-01T19:24:29.121Z,8.28
2023-04-01T19:27:05.897Z,8.28
2023-04-01T19:29:42.201Z,8.31
2023-04-01T19:32:16.668Z,8.37
2023-04-01T19:34:53.483Z,8.40
2023-04-01T19:37:31.913Z,8.35
2023-04-01T19:40:06.813Z,8.37
2023-04-01T19:42:42.631Z,8.39
2023-04-01T19:45:19.253Z,8.39
2023-04-01T19:47:53.187Z,8.38
2023-04-01T19:50:29.414Z,8.40
2023-04-01T19:53:00.756Z,8.42
2023-04-01T19:55:36.184Z,8.43
2023-04-01T19:58:10.121Z,8.56
2023-04-01T20:00:40.741Z,8.50
2023-04-01T20:03:15.918Z,8.41
2023-04-01T20:05:59.425Z,8.45
2023-04-01T20:08:35.554Z,8.42
2023-04-01T20:11:09.223Z,8.49
2023-04-01T20:13:47.525Z,8.46
2023-04-01T20:16:17.460Z,8.47
2023-04-01T20:18:50.926Z,8.46
2023-04-01T20:21:34.566Z,8.51
2023-04-01T20:24:04.778Z,8.48
2023-04-01T20:26:37.463Z,8.49
2023-04-01T20:29:24.356Z,8.56
2023-04-01T20:32:02.072Z,8.50
2023-04-01T20:34:38.624Z,8.49
2023-04-01T20:37:17.739Z,8.48
2023-04-01T20:40:05.103Z,8.43
2023-04-01T20:42:43.088Z,8.37
2023-04-01T20:45:25.280Z,8.42
2023-04-01T20:48:06.028Z,8.43
2023-04-01T20:50:37.687Z,8.37
2023-04-01T20:53:10.367Z,8.31
2023-04-01T20:55:58.105Z,8.28
2023-04-01T20:58:31.185Z,8.29
2023-04-01T21:01:06.674Z,8.29
2023-04-01T21:03:44.203Z,8.25
2023-04-01T21:06:17.930Z,8.22
2023-04-01T21:08:53.601Z,8.23
2023-04-01T21:11:28.117Z,8.17
2023-04-01T21:14:02.329Z,8.25
2023-04-01T21:16:37.112Z,8.21
2023-04-01T21:19:15.037Z,8.16
2023-04-01T21:21:53.466Z,8.15
2023-04-01T21:24:48.660Z,8.15
2023-04-01T21:27:23.808Z,8.10
2023-04-01T21:29:56.206Z,8.12
2023-04-01T21:32:34.023Z,8.09
2023-04-01T21:35:09.706Z,8.06
2023-04-01T21:37:53.738Z,8.14
2023-04-01T21:40:45.566Z,8.18
2023-04-01T21:43:24.959Z,8.10
2023-04-01T21:46:08.388Z,8.09
2023-04-01T21:48:54.873Z,8.16
2023-04-01T21:51:38.256Z,8.10
2023-04-01T21:54:21.865Z,8.10
2023-04-01T21:57:07.281Z,8.15
2023-04-01T21:59:47.011Z,8.12
2023-04-01T22:02:42.301Z,8.14
2023-04-01T22:05:13.549Z,8.15
2023-04-01T22:07:43.426Z,8.16
2023-04-01T22:10:16.329Z,8.16
2023-04-01T22:12:49.401Z,8.11
2023-04-01T22:15:22.307Z,8.09
2023-04-01T22:17:56.278Z,8.20
2023-04-01T22:20:29.898Z,8.14
2023-04-01T22:23:05.081Z,8.15
2023-04-01T22:25:39.875Z,8.09
2023-04-01T22:28:13.502Z,8.05
2023-04-01T22:30:44.104Z,8.10
2023-04-01T22:33:16.281Z,8.11
2023-04-01T22:35:52.504Z,8.13
2023-04-01T22:38:26.166Z,8.11
2023-04-01T22:41:00.294Z,8.11
2023-04-01T22:43:37.486Z,8.09
2023-04-01T22:46:18.888Z,8.17
2023-04-01T22:48:50.830Z,8.11
2023-04-01T22:51:21.575Z,8.16
2023-04-01T22:54:01.440Z,8.13
2023-04-01T22:56:32.446Z,8.11
2023-04-01T22:59:07.880Z,8.13
2023-04-01T23:01:40.798Z,8.10
2023-04-01T23:04:14.465Z,8.05
2023-04-01T23:06:45.494Z,8.00
2023-04-01T23:09:16.150Z,7.98
2023-04-01T23:11:50.158Z,7.90
2023-04-01T23:14:35.762Z,7.83
2023-04-01T23:17:10.170Z,7.80
2023-04-01T23:19:42.764Z,7.83
2023-04-01T23:22:18.121Z,7.86
2023-04-01T23:24:52.036Z,7.86
2023-04-01T23:27:24.814Z,7.86
2023-04-01T23:29:57.278Z,7.86
2023-04-01T23:32:27.826Z,7.83
2023-04-01T23:34:59.201Z,7.88
2023-04-01T23:37:28.859Z,7.84
2023-04-01T23:39:58.645Z,7.75
2023-04-01T23:42:29.219Z,7.77
2023-04-01T23:45:01.508Z,7.74
2023-04-01T23:47:32.992Z,7.76
2023-04-01T23:50:04.715Z,7.75
2023-04-01T23:52:34.610Z,7.81
2023-04-01T23:55:07.705Z,7.79
2023-04-01T23:57:37.996Z,7.78
